Data Viewer
| City | State | Eastern Time | Source | Temp | DewPt | RH | BP | 5 Min Precip | Wind Speed | Wind Dir | 5 Min Wind Max | 5 Min Wind Max Dir |
|---|---|---|---|---|---|---|---|---|---|---|---|---|
| New York JFK | NY | 2026-05-08 22:50 | ASOS | 54 | 45 | 71 | 29.93 | 0 | N | |||
| New York JFK | NY | 2026-05-09 05:50 | ASOS | 54 | 46 | 77 | 29.90 | 10 | S | |||
| New York JFK | NY | 2026-05-09 07:05 | ASOS | 55 | 46 | 72 | 29.92 | 13 | S | |||
| New York JFK | NY | 2026-05-09 07:00 | ASOS | 55 | 46 | 72 | 29.92 | 12 | S | |||
| New York JFK | NY | 2026-05-09 06:50 | ASOS | 55 | 46 | 72 | 29.91 | 13 | S | |||
| New York JFK | NY | 2026-05-09 06:45 | ASOS | 55 | 46 | 72 | 29.91 | 9 | S | |||
| New York JFK | NY | 2026-05-09 06:40 | ASOS | 54 | 46 | 77 | 29.91 | 9 | SSW | |||
| New York JFK | NY | 2026-05-09 06:35 | ASOS | 54 | 46 | 77 | 29.91 | 9 | S | |||
| New York JFK | NY | 2026-05-09 06:30 | ASOS | 54 | 46 | 77 | 29.91 | 7 | SSW | |||
| New York JFK | NY | 2026-05-09 06:25 | ASOS | 54 | 46 | 77 | 29.91 | 8 | SSW | |||
| New York JFK | NY | 2026-05-09 06:20 | ASOS | 54 | 46 | 77 | 29.90 | 7 | S | |||
| New York JFK | NY | 2026-05-09 06:15 | ASOS | 54 | 46 | 77 | 29.90 | 6 | SSW | |||
| New York JFK | NY | 2026-05-09 06:10 | ASOS | 54 | 46 | 77 | 29.90 | 6 | S | |||
| New York JFK | NY | 2026-05-09 06:05 | ASOS | 54 | 46 | 77 | 29.90 | 8 | S | |||
| New York JFK | NY | 2026-05-09 06:00 | ASOS | 54 | 46 | 77 | 29.91 | 9 | S | |||
| New York JFK | NY | 2026-05-09 05:51 | ASOS | 54 | 46 | 75 | 29.90 | 9 | SSW | |||
| New York JFK | NY | 2026-05-09 05:45 | ASOS | 54 | 46 | 77 | 29.90 | 10 | S | |||
| New York JFK | NY | 2026-05-09 07:15 | ASOS | 55 | 46 | 72 | 29.92 | 10 | S | |||
| New York JFK | NY | 2026-05-09 05:40 | ASOS | 52 | 46 | 82 | 29.90 | 7 | S | |||
| New York JFK | NY | 2026-05-09 05:35 | ASOS | 54 | 46 | 77 | 29.90 | 5 | SSE | |||
| New York JFK | NY | 2026-05-09 05:30 | ASOS | 54 | 46 | 77 | 29.90 | 3 | SE | |||
| New York JFK | NY | 2026-05-09 05:25 | ASOS | 54 | 46 | 77 | 29.90 | 3 | SE | |||
| New York JFK | NY | 2026-05-09 05:20 | ASOS | 54 | 46 | 77 | 29.90 | 3 | SE | |||
| New York JFK | NY | 2026-05-09 05:15 | ASOS | 52 | 46 | 82 | 29.90 | 0 | N | |||
| New York JFK | NY | 2026-05-09 05:10 | ASOS | 54 | 46 | 77 | 29.90 | 0 | N | |||
| New York JFK | NY | 2026-05-09 05:05 | ASOS | 54 | 46 | 77 | 29.90 | 3 | ESE | |||
| New York JFK | NY | 2026-05-09 05:00 | ASOS | 52 | 46 | 82 | 29.90 | 3 | ESE | |||
| New York JFK | NY | 2026-05-09 04:55 | ASOS | 54 | 46 | 77 | 29.90 | 3 | SE | |||
| New York JFK | NY | 2026-05-09 04:51 | ASOS | 53 | 47 | 80 | 29.90 | 3 | SE | |||
| New York JFK | NY | 2026-05-09 04:50 | ASOS | 54 | 46 | 77 | 29.90 | 3 | ESE | |||
| New York JFK | NY | 2026-05-09 04:45 | ASOS | 52 | 48 | 87 | 29.90 | 5 | SE | |||
| New York JFK | NY | 2026-05-09 04:40 | ASOS | 52 | 48 | 87 | 29.91 | 5 | SE | |||
| New York JFK | NY | 2026-05-09 07:10 | ASOS | 55 | 46 | 72 | 29.92 | 14 | S | |||
| New York JFK | NY | 2026-05-09 07:20 | ASOS | 55 | 46 | 72 | 29.92 | 12 | S | |||
| New York JFK | NY | 2026-05-09 04:30 | ASOS | 52 | 46 | 82 | 29.91 | 5 | SE | |||
| New York JFK | NY | 2026-05-09 09:25 | ASOS | 57 | 48 | 72 | 29.90 | 0 | N | |||
| New York JFK | NY | 2026-05-09 18:51 | ASOS | 56 | 53 | 90 | 29.85 | 6 | E | |||
| New York JFK | NY | 2026-05-09 14:50 | ASOS | 55 | 54 | 94 | 29.88 | 12 | SSW | |||
| New York JFK | NY | 2026-05-09 11:15 | ASOS | 61 | 52 | 72 | 29.90 | 9 | S | |||
| New York JFK | NY | 2026-05-09 11:05 | ASOS | 59 | 48 | 67 | 29.90 | 7 | SE | |||
| New York JFK | NY | 2026-05-09 11:00 | ASOS | 59 | 50 | 72 | 29.90 | 7 | SE | |||
| New York JFK | NY | 2026-05-09 10:51 | ASOS | 59 | 50 | 72 | 29.90 | 7 | SE | |||
| New York JFK | NY | 2026-05-09 10:50 | ASOS | 59 | 50 | 72 | 29.90 | 7 | SE | |||
| New York JFK | NY | 2026-05-09 10:40 | ASOS | 59 | 48 | 67 | 29.90 | 8 | SE | |||
| New York JFK | NY | 2026-05-09 10:25 | ASOS | 61 | 48 | 63 | 29.90 | 7 | SE | |||
| New York JFK | NY | 2026-05-09 10:15 | ASOS | 61 | 48 | 63 | 29.90 | 5 | SSE | |||
| New York JFK | NY | 2026-05-09 10:05 | ASOS | 59 | 46 | 63 | 29.90 | 6 | SSE | |||
| New York JFK | NY | 2026-05-09 09:51 | ASOS | 58 | 48 | 70 | 29.90 | 3 | SSE | |||
| New York JFK | NY | 2026-05-09 09:50 | ASOS | 57 | 48 | 72 | 29.90 | 3 | SSE | |||
| New York JFK | NY | 2026-05-09 09:40 | ASOS | 57 | 48 | 72 | 29.91 | 3 | SSE | |||
| New York JFK | NY | 2026-05-09 09:15 | ASOS | 55 | 48 | 77 | 29.91 | 0 | N | |||
| New York JFK | NY | 2026-05-09 07:25 | ASOS | 55 | 46 | 72 | 29.92 | 8 | SSE | |||
| New York JFK | NY | 2026-05-09 09:10 | ASOS | 55 | 48 | 77 | 29.91 | 3 | SE | |||
| New York JFK | NY | 2026-05-09 09:05 | ASOS | 55 | 48 | 77 | 29.91 | 3 | SSE | |||
| New York JFK | NY | 2026-05-09 08:55 | ASOS | 55 | 48 | 77 | 29.92 | 0 | N | |||
| New York JFK | NY | 2026-05-09 08:50 | ASOS | 55 | 48 | 77 | 29.92 | 5 | SE | |||
| New York JFK | NY | 2026-05-09 08:40 | ASOS | 55 | 48 | 77 | 29.92 | 5 | SE | |||
| New York JFK | NY | 2026-05-09 08:25 | ASOS | 55 | 48 | 77 | 29.92 | 7 | SE | |||
| New York JFK | NY | 2026-05-09 08:20 | ASOS | 55 | 48 | 77 | 29.92 | 7 | SSE | |||
| New York JFK | NY | 2026-05-09 08:15 | ASOS | 55 | 48 | 77 | 29.92 | 8 | SSE | |||
| New York JFK | NY | 2026-05-09 08:05 | ASOS | 55 | 48 | 77 | 29.92 | 6 | SSE | |||
| New York JFK | NY | 2026-05-09 07:51 | ASOS | 55 | 48 | 77 | 29.92 | 6 | SSE | |||
| New York JFK | NY | 2026-05-09 07:50 | ASOS | 55 | 48 | 77 | 29.92 | 5 | SSE | |||
| New York JFK | NY | 2026-05-09 07:40 | ASOS | 55 | 48 | 77 | 29.92 | 7 | SSE | |||
| New York JFK | NY | 2026-05-09 07:35 | ASOS | 55 | 48 | 77 | 29.92 | 7 | S | |||
| New York JFK | NY | 2026-05-09 07:30 | ASOS | 55 | 48 | 77 | 29.92 | 7 | SSE | |||
| New York JFK | NY | 2026-05-09 04:35 | ASOS | 52 | 46 | 82 | 29.91 | 5 | SSE | |||
| New York JFK | NY | 2026-05-09 04:25 | ASOS | 52 | 46 | 82 | 29.91 | 3 | E | |||
| New York JFK | NY | 2026-05-08 22:51 | ASOS | 54 | 45 | 72 | 29.93 | 0 | N | |||
| New York JFK | NY | 2026-05-09 00:15 | ASOS | 52 | 46 | 82 | 29.92 | 5 | ENE | |||
| New York JFK | NY | 2026-05-09 01:25 | ASOS | 54 | 48 | 82 | 29.93 | 5 | ESE | |||
| New York JFK | NY | 2026-05-09 01:20 | ASOS | 54 | 48 | 82 | 29.93 | 3 | ESE | |||
| New York JFK | NY | 2026-05-09 01:15 | ASOS | 54 | 48 | 82 | 29.93 | 3 | E | |||
| New York JFK | NY | 2026-05-09 01:10 | ASOS | 52 | 46 | 82 | 29.93 | 5 | ESE | |||
| New York JFK | NY | 2026-05-09 01:05 | ASOS | 52 | 46 | 82 | 29.93 | 0 | N | |||
| New York JFK | NY | 2026-05-09 00:55 | ASOS | 52 | 46 | 82 | 29.92 | 3 | ESE | |||
| New York JFK | NY | 2026-05-09 00:51 | ASOS | 52 | 46 | 80 | 29.92 | 5 | SE | |||
| New York JFK | NY | 2026-05-09 00:50 | ASOS | 52 | 46 | 82 | 29.92 | 5 | SE | |||
| New York JFK | NY | 2026-05-09 00:45 | ASOS | 52 | 46 | 82 | 29.92 | 5 | ESE | |||
| New York JFK | NY | 2026-05-09 00:40 | ASOS | 52 | 45 | 76 | 29.92 | 3 | ESE | |||
| New York JFK | NY | 2026-05-09 00:35 | ASOS | 52 | 45 | 76 | 29.92 | 5 | ESE | |||
| New York JFK | NY | 2026-05-09 00:30 | ASOS | 52 | 45 | 76 | 29.92 | 3 | ESE | |||
| New York JFK | NY | 2026-05-09 00:25 | ASOS | 52 | 46 | 82 | 29.92 | 3 | E | |||
| New York JFK | NY | 2026-05-09 00:20 | ASOS | 52 | 45 | 76 | 29.92 | 5 | ENE | |||
| New York JFK | NY | 2026-05-09 00:10 | ASOS | 52 | 45 | 76 | 29.92 | 3 | ENE | |||
| New York JFK | NY | 2026-05-09 01:35 | ASOS | 54 | 48 | 82 | 29.93 | 3 | ESE | |||
| New York JFK | NY | 2026-05-09 00:05 | ASOS | 52 | 45 | 76 | 29.92 | 5 | ENE | |||
| New York JFK | NY | 2026-05-09 00:00 | ASOS | 52 | 45 | 76 | 29.92 | 5 | ENE | |||
| New York JFK | NY | 2026-05-08 23:51 | ASOS | 51 | 44 | 77 | 29.92 | 6 | E | |||
| New York JFK | NY | 2026-05-08 23:45 | ASOS | 54 | 45 | 71 | 29.92 | 6 | NNE | |||
| New York JFK | NY | 2026-05-08 23:40 | ASOS | 54 | 45 | 71 | 29.92 | 5 | NNE | |||
| New York JFK | NY | 2026-05-08 23:35 | ASOS | 54 | 45 | 71 | 29.93 | 3 | NE | |||
| New York JFK | NY | 2026-05-08 23:30 | ASOS | 54 | 45 | 71 | 29.92 | 5 | NE | |||
| New York JFK | NY | 2026-05-08 23:25 | ASOS | 54 | 45 | 71 | 29.93 | 5 | NE | |||
| New York JFK | NY | 2026-05-08 23:20 | ASOS | 54 | 45 | 71 | 29.93 | 6 | ENE | |||
| New York JFK | NY | 2026-05-08 23:15 | ASOS | 54 | 46 | 77 | 29.93 | 5 | ENE | |||
| New York JFK | NY | 2026-05-08 23:10 | ASOS | 54 | 46 | 77 | 29.93 | 5 | ENE | |||
| New York JFK | NY | 2026-05-08 23:05 | ASOS | 54 | 45 | 71 | 29.93 | 3 | ENE | |||
| New York JFK | NY | 2026-05-08 23:00 | ASOS | 54 | 45 | 71 | 29.93 | 0 | N | |||
| New York JFK | NY | 2026-05-08 22:55 | ASOS | 54 | 45 | 71 | 29.93 | 0 | N | |||
| New York JFK | NY | 2026-05-09 01:30 | ASOS | 54 | 48 | 82 | 29.93 | 5 | ESE | |||
| New York JFK | NY | 2026-05-09 01:40 | ASOS | 54 | 48 | 82 | 29.93 | 5 | SE | |||
| New York JFK | NY | 2026-05-09 04:20 | ASOS | 52 | 46 | 82 | 29.91 | 0 | N | |||
| New York JFK | NY | 2026-05-09 03:00 | ASOS | 52 | 48 | 87 | 29.91 | 5 | SSE | |||
| New York JFK | NY | 2026-05-09 04:15 | ASOS | 52 | 46 | 82 | 29.91 | 3 | E | |||
| New York JFK | NY | 2026-05-09 04:05 | ASOS | 52 | 46 | 82 | 29.91 | 5 | E | |||
| New York JFK | NY | 2026-05-09 04:00 | ASOS | 52 | 46 | 82 | 29.91 | 3 | E | |||
| New York JFK | NY | 2026-05-09 03:51 | ASOS | 53 | 47 | 80 | 29.91 | 3 | E | |||
| New York JFK | NY | 2026-05-09 03:50 | ASOS | 54 | 46 | 77 | 29.91 | 3 | E | |||
| New York JFK | NY | 2026-05-09 03:45 | ASOS | 54 | 48 | 82 | 29.91 | 3 | SE | |||
| New York JFK | NY | 2026-05-09 03:40 | ASOS | 54 | 48 | 82 | 29.91 | 3 | SE | |||
| New York JFK | NY | 2026-05-09 03:35 | ASOS | 54 | 48 | 82 | 29.91 | 5 | SSE | |||
| New York JFK | NY | 2026-05-09 03:30 | ASOS | 54 | 48 | 82 | 29.91 | 7 | SSE | |||
| New York JFK | NY | 2026-05-09 03:25 | ASOS | 54 | 48 | 82 | 29.91 | 7 | SSE | |||
| New York JFK | NY | 2026-05-09 03:20 | ASOS | 54 | 48 | 82 | 29.91 | 6 | SSE | |||
| New York JFK | NY | 2026-05-09 03:15 | ASOS | 54 | 48 | 82 | 29.91 | 7 | SSE | |||
| New York JFK | NY | 2026-05-09 03:10 | ASOS | 54 | 48 | 82 | 29.91 | 6 | SSE | |||
| New York JFK | NY | 2026-05-09 03:05 | ASOS | 54 | 48 | 82 | 29.91 | 7 | SSE | |||
| New York JFK | NY | 2026-05-09 02:55 | ASOS | 54 | 48 | 82 | 29.91 | 3 | SSE | |||
| New York JFK | NY | 2026-05-09 01:45 | ASOS | 54 | 48 | 82 | 29.93 | 5 | ESE | |||
| New York JFK | NY | 2026-05-09 02:15 | ASOS | 54 | 48 | 82 | 29.92 | 3 | E | |||
| New York JFK | NY | 2026-05-09 01:50 | ASOS | 54 | 48 | 82 | 29.92 | 3 | ESE | |||
| New York JFK | NY | 2026-05-09 01:51 | ASOS | 53 | 48 | 83 | 29.93 | 3 | ESE | |||
| New York JFK | NY | 2026-05-09 01:55 | ASOS | 54 | 48 | 82 | 29.93 | 0 | N | |||
| New York JFK | NY | 2026-05-09 02:00 | ASOS | 54 | 48 | 82 | 29.93 | 3 | ENE | |||
| New York JFK | NY | 2026-05-09 02:05 | ASOS | 54 | 48 | 82 | 29.92 | 3 | ESE | |||
| New York JFK | NY | 2026-05-09 02:10 | ASOS | 54 | 48 | 82 | 29.92 | 3 | ESE | |||
| New York JFK | NY | 2026-05-09 02:20 | ASOS | 52 | 48 | 87 | 29.92 | 5 | ENE | |||
| New York JFK | NY | 2026-05-09 02:51 | ASOS | 52 | 48 | 86 | 29.90 | 0 | N | |||
| New York JFK | NY | 2026-05-09 02:25 | ASOS | 52 | 48 | 87 | 29.91 | 5 | ENE | |||
| New York JFK | NY | 2026-05-09 02:30 | ASOS | 54 | 48 | 82 | 29.90 | 6 | E | |||
| New York JFK | NY | 2026-05-09 02:35 | ASOS | 52 | 48 | 87 | 29.90 | 5 | E | |||
| New York JFK | NY | 2026-05-09 02:40 | ASOS | 52 | 48 | 87 | 29.90 | 5 | E | |||
| New York JFK | NY | 2026-05-09 02:45 | ASOS | 52 | 48 | 87 | 29.90 | 3 | E | |||
| New York JFK | NY | 2026-05-09 02:50 | ASOS | 52 | 48 | 87 | 29.90 | 0 | N | |||
| New York JFK | NY | 2026-05-09 22:05 | ASOS | 54 | 52 | 94 | 29.87 | 5 | E |
data collection created in 0.020212173461914 (queried in 0.004414) rendered in: 0.00026798248291016

